createdAt,value
2018-12-07T00:01:26.032Z,80.23
2018-12-07T00:03:55.889Z,84.33
2018-12-07T00:06:25.403Z,94.40
2018-12-07T00:08:54.797Z,86.00
2018-12-07T00:11:24.179Z,87.33
2018-12-07T00:13:53.696Z,86.67
2018-12-07T00:16:23.211Z,82.40
2018-12-07T00:18:52.688Z,93.17
2018-12-07T00:21:21.968Z,88.50
2018-12-07T00:23:51.244Z,91.07
2018-12-07T00:26:20.641Z,91.03
2018-12-07T00:28:50.223Z,97.27
2018-12-07T00:31:19.727Z,96.30
2018-12-07T00:33:49.151Z,95.37
2018-12-07T00:36:18.628Z,91.80
2018-12-07T00:38:48.123Z,95.13
2018-12-07T00:41:18.143Z,90.50
2018-12-07T00:43:47.507Z,99.23
2018-12-07T00:46:17.017Z,94.73
2018-12-07T00:48:46.563Z,99.30
2018-12-07T00:51:16.060Z,90.23
2018-12-07T00:53:45.465Z,82.87
2018-12-07T00:56:15.189Z,91.73
2018-12-07T00:58:44.676Z,101.70
2018-12-07T01:01:14.083Z,95.90
2018-12-07T01:03:43.574Z,86.00
2018-12-07T01:06:13.104Z,88.23
2018-12-07T01:08:42.588Z,95.67
2018-12-07T01:11:11.999Z,88.80
2018-12-07T01:13:41.400Z,108.77
2018-12-07T01:16:10.887Z,93.20
2018-12-07T01:18:40.376Z,100.30
2018-12-07T01:21:09.768Z,108.77
2018-12-07T01:23:39.227Z,99.17
2018-12-07T01:26:08.735Z,99.40
2018-12-07T01:28:38.118Z,95.47
2018-12-07T01:31:07.629Z,91.67
2018-12-07T01:33:37.035Z,99.93
2018-12-07T01:36:06.520Z,107.00
2018-12-07T01:38:37.056Z,91.67
2018-12-07T01:41:06.476Z,100.37
2018-12-07T01:43:36.045Z,94.17
2018-12-07T01:46:05.539Z,92.60
2018-12-07T01:48:34.847Z,106.10
2018-12-07T01:51:04.127Z,108.80
2018-12-07T01:53:33.494Z,89.17
2018-12-07T01:56:02.825Z,98.50
2018-12-07T01:58:32.154Z,101.43
2018-12-07T02:01:01.463Z,99.57
2018-12-07T02:03:31.875Z,89.27
2018-12-07T02:06:01.581Z,97.50
2018-12-07T02:08:30.982Z,94.57
2018-12-07T02:11:00.387Z,103.53
2018-12-07T02:13:29.732Z,93.87
2018-12-07T02:15:59.065Z,92.27
2018-12-07T02:18:28.554Z,94.60
2018-12-07T02:21:00.631Z,96.63
2018-12-07T02:23:30.297Z,90.47
2018-12-07T02:25:59.594Z,87.27
2018-12-07T02:28:29.056Z,94.37
2018-12-07T02:30:58.406Z,91.47
2018-12-07T02:33:27.710Z,88.53
2018-12-07T02:35:57.041Z,98.90
2018-12-07T02:38:26.456Z,97.23
2018-12-07T02:40:55.986Z,89.07
2018-12-07T02:43:25.235Z,98.70
2018-12-07T02:45:54.622Z,91.77
2018-12-07T02:48:24.019Z,93.10
2018-12-07T02:50:53.401Z,91.17
2018-12-07T02:53:24.579Z,93.73
2018-12-07T02:55:53.942Z,98.30
2018-12-07T02:58:23.311Z,92.47
2018-12-07T03:00:52.651Z,95.50
2018-12-07T03:03:22.079Z,104.27
2018-12-07T03:05:51.571Z,88.47
2018-12-07T03:08:20.964Z,87.80
2018-12-07T03:10:50.479Z,86.67
2018-12-07T03:13:19.885Z,92.73
2018-12-07T03:15:49.226Z,88.87
2018-12-07T03:18:27.394Z,98.17
2018-12-07T03:20:56.893Z,83.40
2018-12-07T03:23:26.496Z,85.63
2018-12-07T03:25:56.610Z,89.00
2018-12-07T03:28:25.946Z,91.00
2018-12-07T03:30:55.336Z,87.13
2018-12-07T03:33:24.642Z,104.63
2018-12-07T03:35:53.990Z,101.07
2018-12-07T03:38:23.327Z,102.10
2018-12-07T03:40:54.646Z,91.83
2018-12-07T03:43:24.135Z,90.97
2018-12-07T03:45:53.522Z,101.37
2018-12-07T03:48:23.696Z,99.43
2018-12-07T03:50:53.070Z,98.00
2018-12-07T03:53:22.397Z,90.90
2018-12-07T03:55:51.855Z,80.90
2018-12-07T03:58:21.252Z,92.67
2018-12-07T04:00:50.827Z,91.40
2018-12-07T04:03:20.318Z,88.00
2018-12-07T04:05:49.654Z,88.60
2018-12-07T04:08:19.406Z,96.77
2018-12-07T04:10:48.843Z,101.87
2018-12-07T04:13:18.347Z,95.80
2018-12-07T04:15:47.766Z,95.53
2018-12-07T04:18:17.254Z,90.83
2018-12-07T04:20:46.765Z,78.30
2018-12-07T04:23:16.183Z,93.50
2018-12-07T04:25:45.850Z,96.17
2018-12-07T04:28:17.322Z,80.87
2018-12-07T04:30:46.707Z,86.30
2018-12-07T04:33:16.447Z,89.77
2018-12-07T04:35:45.749Z,88.00
2018-12-07T04:38:15.108Z,91.23
2018-12-07T04:40:44.511Z,95.10
2018-12-07T04:43:13.878Z,94.53
2018-12-07T04:45:43.320Z,86.60
2018-12-07T04:48:12.630Z,93.30
2018-12-07T04:50:41.986Z,91.37
2018-12-07T04:53:11.449Z,93.03
2018-12-07T04:55:41.925Z,87.83
2018-12-07T04:58:11.264Z,84.40
2018-12-07T05:00:40.576Z,87.83
2018-12-07T05:03:10.090Z,80.40
2018-12-07T05:05:39.474Z,87.50
2018-12-07T05:08:08.798Z,91.70
2018-12-07T05:10:38.088Z,86.77
2018-12-07T05:13:07.336Z,88.40
2018-12-07T05:15:36.646Z,88.37
2018-12-07T05:18:09.169Z,94.70
2018-12-07T05:20:38.764Z,93.80
2018-12-07T05:23:08.223Z,81.37
2018-12-07T05:25:37.615Z,97.60
2018-12-07T05:28:07.178Z,83.87
2018-12-07T05:30:36.669Z,80.63
2018-12-07T05:33:05.981Z,79.00
2018-12-07T05:35:35.410Z,75.70
2018-12-07T05:38:06.554Z,85.33
2018-12-07T05:40:35.894Z,89.97
2018-12-07T05:43:05.365Z,81.97
2018-12-07T05:45:34.852Z,92.23
2018-12-07T05:48:04.437Z,80.23
2018-12-07T05:50:33.758Z,74.07
2018-12-07T05:53:03.186Z,75.77
2018-12-07T05:55:32.535Z,86.70
2018-12-07T05:58:02.027Z,84.10
2018-12-07T06:00:31.419Z,80.63
2018-12-07T06:03:00.852Z,85.03
2018-12-07T06:05:30.287Z,100.80
2018-12-07T06:08:00.320Z,98.33
2018-12-07T06:10:29.705Z,86.67
2018-12-07T06:12:59.088Z,87.07
2018-12-07T06:15:31.160Z,85.77
2018-12-07T06:18:00.642Z,76.03
2018-12-07T06:20:30.164Z,81.77
2018-12-07T06:22:59.657Z,75.90
2018-12-07T06:25:29.008Z,80.43
2018-12-07T06:27:58.452Z,72.70
2018-12-07T06:30:28.086Z,74.20
2018-12-07T06:32:57.459Z,72.77
2018-12-07T06:35:26.919Z,65.50
2018-12-07T06:37:56.278Z,69.33
2018-12-07T06:40:25.570Z,67.87
2018-12-07T06:42:56.490Z,74.73
2018-12-07T06:45:26.012Z,77.57
2018-12-07T06:47:55.609Z,78.37
2018-12-07T06:50:25.228Z,74.80
2018-12-07T06:52:54.625Z,74.03
2018-12-07T06:55:25.151Z,70.25
2018-12-07T06:57:54.565Z,58.77
2018-12-07T07:00:24.231Z,71.20
2018-12-07T07:02:53.653Z,69.50
2018-12-07T07:05:22.969Z,70.50
2018-12-07T07:07:52.474Z,68.33
2018-12-07T07:10:21.953Z,67.80
2018-12-07T07:12:51.524Z,66.13
2018-12-07T07:15:21.121Z,73.13
2018-12-07T07:17:50.566Z,67.97
2018-12-07T07:20:20.020Z,68.87
2018-12-07T07:22:49.625Z,62.37
2018-12-07T07:25:19.027Z,65.47
2018-12-07T07:27:48.344Z,73.10
2018-12-07T07:30:19.268Z,83.57
2018-12-07T07:32:48.687Z,71.17
2018-12-07T07:35:18.068Z,77.93
2018-12-07T07:37:47.406Z,133.40
2018-12-07T07:40:16.860Z,75.23
2018-12-07T07:42:47.414Z,75.87
2018-12-07T07:45:17.104Z,69.77
2018-12-07T07:47:46.705Z,64.00
2018-12-07T07:50:16.552Z,80.60
2018-12-07T07:52:45.953Z,86.73
2018-12-07T07:55:15.525Z,83.93
2018-12-07T07:57:45.429Z,81.30
2018-12-07T08:00:14.896Z,81.67
2018-12-07T08:02:44.364Z,87.83
2018-12-07T08:05:13.946Z,97.37
2018-12-07T08:07:43.212Z,79.63
2018-12-07T08:10:12.654Z,81.10
2018-12-07T08:12:42.139Z,119.37
2018-12-07T08:15:11.610Z,120.45
2018-12-07T08:17:40.924Z,78.27
2018-12-07T08:20:10.375Z,116.50
2018-12-07T08:22:39.884Z,87.47
2018-12-07T08:25:09.605Z,87.47
2018-12-07T08:27:39.305Z,102.23
2018-12-07T08:30:10.809Z,92.03
2018-12-07T08:32:40.214Z,101.47
2018-12-07T08:35:09.749Z,85.00
2018-12-07T08:37:40.293Z,115.13
2018-12-07T08:40:09.816Z,104.57
2018-12-07T08:42:39.205Z,112.60
2018-12-07T08:45:09.568Z,97.53
2018-12-07T08:47:38.951Z,124.80
2018-12-07T08:50:11.232Z,111.80
2018-12-07T08:52:40.703Z,103.43
2018-12-07T08:55:10.205Z,112.07
2018-12-07T08:57:39.588Z,141.53
2018-12-07T09:00:10.277Z,119.90
2018-12-07T09:02:42.270Z,133.03
2018-12-07T09:05:11.768Z,124.50
2018-12-07T09:07:41.242Z,108.37
2018-12-07T09:10:10.582Z,119.27
2018-12-07T09:12:40.085Z,118.70
2018-12-07T09:15:09.608Z,106.05
2018-12-07T09:17:39.689Z,114.12
2018-12-07T09:20:09.114Z,159.52
2018-12-07T09:22:38.550Z,129.25
2018-12-07T09:25:08.290Z,115.43
2018-12-07T09:27:40.294Z,115.32
2018-12-07T09:30:09.826Z,107.85
2018-12-07T09:32:39.645Z,104.30
2018-12-07T09:35:09.238Z,102.43
2018-12-07T09:37:38.593Z,102.30
2018-12-07T09:40:07.991Z,109.60
2018-12-07T09:42:37.523Z,109.63
2018-12-07T09:45:07.319Z,108.92
2018-12-07T09:47:36.830Z,107.17
2018-12-07T09:50:07.663Z,93.75
2018-12-07T09:52:38.167Z,106.80
2018-12-07T09:55:07.579Z,109.95
2018-12-07T09:57:37.105Z,98.78
2018-12-07T10:00:07.514Z,111.22
2018-12-07T10:02:38.417Z,117.50
2018-12-07T10:05:08.068Z,99.30
2018-12-07T10:07:37.504Z,104.60
2018-12-07T10:10:06.936Z,117.27
2018-12-07T10:12:36.485Z,113.77
2018-12-07T10:15:06.645Z,519.33
2018-12-07T10:17:36.069Z,104.93
2018-12-07T10:20:18.397Z,95.35
2018-12-07T10:22:55.127Z,151.03
2018-12-07T10:25:24.549Z,136.65
2018-12-07T10:27:53.950Z,197.68
2018-12-07T10:30:24.766Z,126.58
2018-12-07T10:32:54.817Z,252.53
2018-12-07T10:35:24.335Z,169.00
2018-12-07T10:37:53.805Z,233.73
2018-12-07T10:40:23.493Z,120.80
2018-12-07T10:42:53.080Z,241.53
2018-12-07T10:45:22.458Z,200.35
2018-12-07T10:47:51.870Z,187.90
2018-12-07T10:50:21.406Z,392.32
2018-12-07T10:52:50.836Z,147.85
2018-12-07T10:55:20.234Z,145.87
2018-12-07T10:57:49.691Z,285.17
2018-12-07T11:00:23.273Z,171.10
2018-12-07T11:02:56.915Z,246.83
2018-12-07T11:05:30.470Z,193.63
2018-12-07T11:08:04.152Z,210.97
2018-12-07T11:10:37.731Z,268.70
2018-12-07T11:13:11.328Z,208.53
2018-12-07T11:15:44.986Z,366.45
2018-12-07T11:18:18.745Z,456.30
2018-12-07T11:20:52.262Z,291.27
2018-12-07T11:23:25.901Z,173.70
2018-12-07T11:25:59.572Z,237.65
2018-12-07T11:28:33.229Z,282.20
2018-12-07T11:31:06.805Z,467.80
2018-12-07T11:33:40.481Z,383.25
2018-12-07T11:36:10.049Z,409.07
2018-12-07T11:38:39.925Z,238.75
2018-12-07T11:41:09.460Z,105.58
2018-12-07T11:43:41.751Z,139.82
2018-12-07T11:46:11.201Z,144.20
2018-12-07T11:48:40.769Z,173.65
2018-12-07T11:51:10.748Z,371.25
2018-12-07T11:53:40.414Z,297.52
2018-12-07T11:56:10.614Z,134.30
2018-12-07T11:58:42.095Z,122.15
2018-12-07T12:01:11.982Z,89.77
2018-12-07T12:03:42.522Z,155.80
2018-12-07T12:06:12.185Z,272.25
2018-12-07T12:08:42.081Z,323.25
2018-12-07T12:11:14.251Z,345.33
2018-12-07T12:13:44.806Z,419.40
2018-12-07T12:16:14.531Z,143.28
2018-12-07T12:18:44.023Z,131.18
2018-12-07T12:21:15.438Z,196.63
2018-12-07T12:23:45.323Z,254.57
2018-12-07T12:26:15.279Z,507.52
2018-12-07T12:28:45.100Z,186.57
2018-12-07T12:31:14.701Z,101.18
2018-12-07T12:33:44.505Z,224.10
2018-12-07T12:36:17.197Z,220.63
2018-12-07T12:38:47.026Z,296.12
2018-12-07T12:41:18.158Z,104.27
2018-12-07T12:43:49.788Z,252.38
2018-12-07T12:46:19.790Z,137.55
2018-12-07T12:49:07.528Z,138.90
2018-12-07T12:51:39.126Z,206.32
2018-12-07T12:54:08.438Z,150.68
2018-12-07T12:56:38.032Z,210.38
2018-12-07T12:59:07.630Z,178.23
2018-12-07T13:01:37.156Z,152.10
2018-12-07T13:04:06.570Z,581.92
2018-12-07T13:06:35.953Z,412.68
2018-12-07T13:09:07.885Z,177.93
2018-12-07T13:11:39.208Z,692.37
2018-12-07T13:14:09.192Z,296.77
2018-12-07T13:16:38.695Z,483.83
2018-12-07T13:19:08.180Z,234.30
2018-12-07T13:21:37.506Z,296.30
2018-12-07T13:24:06.864Z,487.72
2018-12-07T13:26:36.274Z,269.05
2018-12-07T13:29:05.606Z,187.90
2018-12-07T13:31:35.017Z,331.25
2018-12-07T13:34:04.486Z,278.10
2018-12-07T13:36:33.819Z,343.02
2018-12-07T13:39:04.876Z,518.70
2018-12-07T13:41:36.247Z,116.12
2018-12-07T13:44:05.753Z,555.58
2018-12-07T13:46:35.255Z,240.47
2018-12-07T13:49:04.755Z,122.78
2018-12-07T13:51:34.457Z,256.75
2018-12-07T13:54:04.124Z,253.62
2018-12-07T13:56:33.633Z,375.13
2018-12-07T13:59:06.461Z,212.17
2018-12-07T14:01:35.746Z,160.30
2018-12-07T14:04:05.612Z,225.78
2018-12-07T14:06:35.329Z,134.75
2018-12-07T14:09:07.692Z,135.88
2018-12-07T14:11:37.252Z,287.00
2018-12-07T14:14:06.750Z,360.52
2018-12-07T14:16:36.387Z,461.98
2018-12-07T14:19:05.909Z,536.47
2018-12-07T14:21:35.567Z,537.83
2018-12-07T14:24:05.040Z,467.30
2018-12-07T14:26:34.382Z,682.63
2018-12-07T14:29:03.825Z,418.50
2018-12-07T14:31:33.361Z,217.62
2018-12-07T14:34:04.208Z,322.82
2018-12-07T14:36:33.938Z,163.55
2018-12-07T14:39:05.832Z,158.32
2018-12-07T14:41:38.101Z,306.38
2018-12-07T14:44:07.654Z,154.40
2018-12-07T14:46:40.496Z,190.92
2018-12-07T14:49:10.062Z,325.63
2018-12-07T14:51:39.636Z,244.75
2018-12-07T14:54:11.051Z,118.17
2018-12-07T14:56:40.606Z,363.75
2018-12-07T14:59:10.260Z,182.75
2018-12-07T15:01:40.320Z,317.77
2018-12-07T15:04:10.500Z,182.62
2018-12-07T15:06:41.069Z,183.15
2018-12-07T15:09:10.914Z,184.32
2018-12-07T15:11:42.455Z,335.98
2018-12-07T15:14:15.670Z,159.93
2018-12-07T15:16:45.938Z,178.85
2018-12-07T15:19:15.502Z,236.37
2018-12-07T15:21:46.026Z,196.90
2018-12-07T15:24:15.696Z,377.50
2018-12-07T15:26:45.609Z,306.82
2018-12-07T15:29:16.212Z,410.97
2018-12-07T15:31:45.760Z,214.35
2018-12-07T15:34:15.228Z,208.60
2018-12-07T15:36:44.723Z,295.10
2018-12-07T15:39:14.507Z,166.73
2018-12-07T15:41:44.075Z,139.43
2018-12-07T15:44:13.679Z,325.43
2018-12-07T15:46:43.208Z,362.72
2018-12-07T15:49:12.620Z,311.20
2018-12-07T15:51:42.365Z,383.25
2018-12-07T15:54:11.985Z,126.95
2018-12-07T15:56:41.366Z,129.82
2018-12-07T15:59:10.914Z,220.78
2018-12-07T16:01:40.535Z,280.03
2018-12-07T16:04:10.080Z,276.98
2018-12-07T16:06:39.736Z,381.43
2018-12-07T16:09:09.653Z,152.80
2018-12-07T16:11:39.526Z,137.00
2018-12-07T16:14:09.047Z,340.18
2018-12-07T16:16:39.884Z,256.43
2018-12-07T16:19:09.485Z,327.50
2018-12-07T16:21:38.969Z,214.72
2018-12-07T16:24:08.938Z,242.95
2018-12-07T16:26:38.634Z,290.43
2018-12-07T16:29:08.370Z,306.82
2018-12-07T16:31:38.160Z,274.80
2018-12-07T16:34:07.871Z,368.73
2018-12-07T16:36:37.365Z,264.12
2018-12-07T16:39:08.018Z,260.77
2018-12-07T16:41:37.737Z,536.55
2018-12-07T16:44:09.120Z,374.18
2018-12-07T16:46:38.615Z,238.87
2018-12-07T16:49:08.254Z,221.55
2018-12-07T16:51:40.401Z,322.55
2018-12-07T16:54:09.825Z,246.15
2018-12-07T16:56:39.576Z,188.85
2018-12-07T16:59:09.108Z,245.10
2018-12-07T17:01:38.643Z,194.40
2018-12-07T17:04:08.022Z,217.43
2018-12-07T17:06:37.763Z,199.45
2018-12-07T17:09:08.274Z,153.47
2018-12-07T17:11:40.889Z,368.42
2018-12-07T17:14:10.472Z,165.50
2018-12-07T17:16:40.715Z,213.55
2018-12-07T17:19:10.286Z,170.95
2018-12-07T17:21:39.865Z,145.22
2018-12-07T17:24:09.339Z,108.72
2018-12-07T17:26:39.081Z,124.62
2018-12-07T17:29:08.740Z,169.47
2018-12-07T17:31:38.281Z,136.40
2018-12-07T17:34:09.216Z,121.40
2018-12-07T17:36:39.352Z,100.90
2018-12-07T17:39:08.673Z,100.95
2018-12-07T17:41:38.480Z,106.78
2018-12-07T17:44:08.794Z,94.50
2018-12-07T17:46:38.519Z,95.85
2018-12-07T17:49:13.763Z,101.82
2018-12-07T17:51:45.982Z,94.77
2018-12-07T17:54:16.682Z,90.32
2018-12-07T17:56:46.267Z,91.05
2018-12-07T17:59:15.689Z,94.15
2018-12-07T18:01:45.132Z,92.82
2018-12-07T18:04:14.738Z,95.87
2018-12-07T18:06:44.265Z,86.53
2018-12-07T18:09:13.801Z,99.58
2018-12-07T18:11:43.158Z,89.90
2018-12-07T18:14:12.798Z,85.55
2018-12-07T18:16:42.329Z,87.27
2018-12-07T18:19:12.814Z,89.22
2018-12-07T18:21:42.522Z,84.28
2018-12-07T18:24:12.151Z,92.60
2018-12-07T18:26:41.779Z,101.85
2018-12-07T18:29:11.301Z,97.75
2018-12-07T18:31:40.781Z,94.13
2018-12-07T18:34:10.364Z,92.20
2018-12-07T18:36:41.280Z,102.82
2018-12-07T18:39:11.691Z,81.00
2018-12-07T18:41:41.542Z,82.82
2018-12-07T18:44:11.160Z,87.25
2018-12-07T18:46:40.647Z,78.07
2018-12-07T18:49:10.479Z,81.50
2018-12-07T18:51:40.319Z,89.97
2018-12-07T18:54:10.864Z,90.45
2018-12-07T18:56:41.404Z,84.55
2018-12-07T18:59:12.004Z,81.78
2018-12-07T19:01:41.516Z,93.95
2018-12-07T19:04:14.124Z,102.90
2018-12-07T19:06:43.633Z,85.72
2018-12-07T19:09:13.442Z,90.22
2018-12-07T19:11:43.136Z,86.65
2018-12-07T19:14:12.860Z,84.13
2018-12-07T19:16:42.688Z,78.57
2018-12-07T19:19:12.345Z,74.45
2018-12-07T19:21:43.297Z,78.25
2018-12-07T19:24:13.238Z,88.92
2018-12-07T19:26:43.195Z,77.95
2018-12-07T19:29:12.828Z,88.17
2018-12-07T19:31:42.362Z,84.00
2018-12-07T19:34:12.076Z,75.28
2018-12-07T19:36:41.629Z,80.72
2018-12-07T19:39:11.275Z,79.05
2018-12-07T19:41:40.982Z,79.30
2018-12-07T19:44:10.418Z,80.55
2018-12-07T19:46:40.989Z,80.28
2018-12-07T19:49:10.858Z,77.22
2018-12-07T19:51:40.565Z,80.25
2018-12-07T19:54:10.518Z,82.42
2018-12-07T19:56:40.151Z,79.67
2018-12-07T19:59:09.637Z,81.25
2018-12-07T20:01:39.407Z,94.00
2018-12-07T20:04:08.823Z,93.27
2018-12-07T20:06:38.467Z,93.27
2018-12-07T20:09:08.655Z,90.20
2018-12-07T20:11:38.192Z,90.75
2018-12-07T20:14:07.868Z,94.55
2018-12-07T20:16:37.353Z,103.17
2018-12-07T20:19:15.675Z,103.25
2018-12-07T20:22:02.725Z,100.42
2018-12-07T20:24:38.928Z,102.67
2018-12-07T20:27:08.669Z,108.95
2018-12-07T20:29:54.519Z,113.97
2018-12-07T20:32:26.810Z,111.00
2018-12-07T20:34:56.367Z,99.80
2018-12-07T20:37:26.141Z,98.10
2018-12-07T20:39:55.610Z,94.90
2018-12-07T20:42:26.174Z,101.42
2018-12-07T20:44:59.395Z,105.37
2018-12-07T20:47:30.040Z,91.78
2018-12-07T20:50:24.551Z,95.65
2018-12-07T20:53:06.336Z,88.20
2018-12-07T20:55:38.567Z,97.35
2018-12-07T20:58:08.067Z,90.42
2018-12-07T21:00:45.758Z,96.40
2018-12-07T21:03:25.319Z,94.22
2018-12-07T21:06:38.906Z,91.92
2018-12-07T21:09:46.003Z,94.87
2018-12-07T21:12:42.070Z,81.55
2018-12-07T21:15:13.008Z,94.03
2018-12-07T21:17:43.304Z,85.53
2018-12-07T21:20:22.620Z,85.40
2018-12-07T21:23:09.116Z,80.75
2018-12-07T21:25:39.728Z,80.03
2018-12-07T21:28:10.378Z,87.57
2018-12-07T21:30:52.735Z,82.55
2018-12-07T21:33:28.410Z,86.47
2018-12-07T21:36:10.795Z,84.32
2018-12-07T21:38:40.521Z,82.82
2018-12-07T21:41:09.893Z,83.90
2018-12-07T21:43:39.358Z,88.80
2018-12-07T21:46:08.894Z,79.45
2018-12-07T21:48:40.738Z,90.70
2018-12-07T21:51:19.009Z,83.03
2018-12-07T21:53:50.562Z,83.03
2018-12-07T21:56:20.335Z,85.07
2018-12-07T21:58:49.853Z,83.42
2018-12-07T22:01:19.354Z,83.05
2018-12-07T22:03:48.967Z,80.83
2018-12-07T22:06:18.927Z,81.12
2018-12-07T22:08:48.787Z,86.57
2018-12-07T22:11:18.275Z,89.45
2018-12-07T22:13:48.414Z,84.22
2018-12-07T22:16:17.896Z,87.47
2018-12-07T22:18:47.472Z,92.00
2018-12-07T22:21:17.784Z,74.92
2018-12-07T22:23:47.229Z,83.90
2018-12-07T22:26:16.874Z,85.07
2018-12-07T22:28:46.370Z,99.00
2018-12-07T22:31:16.328Z,86.30
2018-12-07T22:33:46.270Z,81.42
2018-12-07T22:36:16.125Z,92.78
2018-12-07T22:38:45.760Z,98.25
2018-12-07T22:41:15.386Z,89.03
2018-12-07T22:43:45.080Z,95.87
2018-12-07T22:46:14.704Z,86.28
2018-12-07T22:48:44.609Z,97.42
2018-12-07T22:51:14.139Z,93.03
2018-12-07T22:53:43.543Z,94.67
2018-12-07T22:56:13.128Z,85.80
2018-12-07T22:58:42.515Z,93.05
2018-12-07T23:01:11.937Z,89.65
2018-12-07T23:03:43.211Z,84.60
2018-12-07T23:06:13.838Z,82.65
2018-12-07T23:08:43.566Z,88.58
2018-12-07T23:11:13.306Z,95.25
2018-12-07T23:13:42.878Z,94.55
2018-12-07T23:16:12.226Z,86.82
2018-12-07T23:18:42.007Z,93.75
2018-12-07T23:21:11.506Z,85.85
2018-12-07T23:23:41.546Z,87.02
2018-12-07T23:26:11.020Z,86.78
2018-12-07T23:28:40.947Z,93.33
2018-12-07T23:31:10.417Z,81.08
2018-12-07T23:33:39.752Z,86.57
2018-12-07T23:36:09.053Z,78.40
2018-12-07T23:38:38.488Z,87.33
2018-12-07T23:41:07.885Z,83.95
2018-12-07T23:43:37.286Z,84.67
2018-12-07T23:46:06.867Z,85.50
2018-12-07T23:48:36.464Z,84.52
2018-12-07T23:51:05.915Z,76.35
2018-12-07T23:53:35.737Z,79.82
2018-12-07T23:56:05.290Z,77.08
2018-12-07T23:58:34.811Z,89.83
